Detall de PIREP

Printer-friendly versionPDF version

[2012/10/13 14:27:00]
Flight IATA:CT1001
Pilot Number:012
Company ICAO:CAT
Aircraft Type:BE20/A
PAX:6
Departing Airport: LIEA
Destination Airport: LEIB
Alternate Airport:LEBL
Online: VATSIM
Route:SUPUX UZ924 RIPAL UM603 MORSS
Flight Level:F190
No Slew and time accel
No pause
Crash detect
Detect pilot in Cockpit between each 30 and 45 minutes
14:27 Zero fuel Weight: 9612 Lbs, Fuel Weight: 1763 Lbs
14:27 VATSIM:LIEA 131350Z 29006KT 260V330 CAVOK 21/14 Q1011
14:27 VATSIM:LEIB 131400Z VRB01KT 9999 FEW015 SCT035 21/18 Q1013 NOSIG
14:27 VOICE CATALONIAN / MEDITERRANEAN ODYSSEY
14:59 Parking Brakes off
15:08 Take-off
15:08 Take off Weight: 11339 Lbs
15:08 Wind: 248º @ 006 Knots Heading: 204º
15:08 POS N40º 38´ 05´´ E008º 17´ 33´´
15:08 Gear Up: 126 Knots
15:20 TOC
15:20 Fuel Weight: 1567 Lb
15:23 Wind:245º@021 Knots Heading: 259º Ground Speed: 243 Knots Altitude 18930ft
15:38 Wind:278º@023 Knots Heading: 261º Ground Speed: 246 Knots Altitude 18986 ft
15:53 Wind:279º@023 Knots Heading: 260º Ground Speed: 246 Knots Altitude 18989 ft
16:00 TOD
16:00 Fuel Weight: 1114 Lb
16:08 Wind:264º@010 Knots Heading: 250º Ground Speed: 276 Knots Altitude 12969 ft
16:23 Wind:318º@005 Knots Heading: 239º Ground Speed: 218 Knots Altitude 6991 ft
16:33 Flaps:1 at 193 Knots
16:33 Gear Down: 177 Knots
16:33 Flaps:2 at 169 Knots
16:36 TouchDown:Rate -176 ft/min Speed: 103 Knots
16:37 VATSIM:LEIB 131630Z VRB02KT 9999 SCT030 22/18 Q1013 NOSIG
16:37 Land
16:37 Wind:002º@001 Knots
16:37 Heading: 248º
16:37 Flight Duration: 01:29
16:37 Landing Weight: 10367 Lbs
16:37 POS N38º 52´ 22´´ E001º 22´ 22´´
16:40 Parking brakes on
16:40 Block to Block Duration: 01:41
16:40 Final Fuel: 747 Lbls
16:40 Spent Fuel: 1016 Lbls
16:40 Flight Length: 341 NM
16:40 TOD Land Length: 142 NM

Exportar CSV

Powered by Drupal - Modified by Danger4k